sensor_id;sensor_type;location;lat;lon;timestamp;pressure;altitude;pressure_sealevel;temperature;humidity
69836;BME280;57132;51.972;4.450;2023-04-24T00:00:55;99875.19;;;8.27;100.00
69836;BME280;57132;51.972;4.450;2023-04-24T00:03:26;99869.88;;;8.27;100.00
69836;BME280;57132;51.972;4.450;2023-04-24T00:05:53;99877.50;;;8.31;100.00
69836;BME280;57132;51.972;4.450;2023-04-24T00:08:19;99875.72;;;8.32;100.00
69836;BME280;57132;51.972;4.450;2023-04-24T00:10:46;99882.81;;;8.31;100.00
69836;BME280;57132;51.972;4.450;2023-04-24T00:13:13;99881.13;;;8.30;100.00
69836;BME280;57132;51.972;4.450;2023-04-24T00:15:38;99874.25;;;8.28;100.00
69836;BME280;57132;51.972;4.450;2023-04-24T00:18:04;99883.06;;;8.28;100.00
69836;BME280;57132;51.972;4.450;2023-04-24T00:20:29;99892.00;;;8.27;100.00
69836;BME280;57132;51.972;4.450;2023-04-24T00:22:55;99891.91;;;8.29;100.00
69836;BME280;57132;51.972;4.450;2023-04-24T00:25:20;99883.16;;;8.27;100.00
69836;BME280;57132;51.972;4.450;2023-04-24T00:27:46;99894.16;;;8.22;100.00
69836;BME280;57132;51.972;4.450;2023-04-24T00:30:11;99891.63;;;8.21;100.00
69836;BME280;57132;51.972;4.450;2023-04-24T00:32:37;99887.16;;;8.21;100.00
69836;BME280;57132;51.972;4.450;2023-04-24T00:35:02;99885.47;;;8.20;100.00
69836;BME280;57132;51.972;4.450;2023-04-24T00:37:28;99890.03;;;8.18;100.00
69836;BME280;57132;51.972;4.450;2023-04-24T00:39:53;99891.00;;;8.17;100.00
69836;BME280;57132;51.972;4.450;2023-04-24T00:42:19;99885.78;;;8.16;100.00
69836;BME280;57132;51.972;4.450;2023-04-24T00:44:44;99883.41;;;8.12;100.00
69836;BME280;57132;51.972;4.450;2023-04-24T00:47:10;99880.84;;;8.11;100.00
69836;BME280;57132;51.972;4.450;2023-04-24T00:49:36;99885.44;;;8.09;100.00
69836;BME280;57132;51.972;4.450;2023-04-24T00:52:02;99885.53;;;8.07;100.00
69836;BME280;57132;51.972;4.450;2023-04-24T00:54:27;99884.69;;;8.07;100.00
69836;BME280;57132;51.972;4.450;2023-04-24T00:56:52;99884.59;;;8.08;100.00
69836;BME280;57132;51.972;4.450;2023-04-24T00:59:18;99884.59;;;8.08;100.00
69836;BME280;57132;51.972;4.450;2023-04-24T01:01:44;99890.00;;;8.07;100.00
69836;BME280;57132;51.972;4.450;2023-04-24T01:04:11;99883.75;;;8.08;100.00
69836;BME280;57132;51.972;4.450;2023-04-24T01:06:39;99881.94;;;8.08;100.00
69836;BME280;57132;51.972;4.450;2023-04-24T01:09:04;99876.50;;;8.10;100.00
69836;BME280;57132;51.972;4.450;2023-04-24T01:11:30;99887.00;;;8.11;100.00
69836;BME280;57132;51.972;4.450;2023-04-24T01:13:56;99882.56;;;8.12;100.00
69836;BME280;57132;51.972;4.450;2023-04-24T01:16:22;99885.06;;;8.13;100.00
69836;BME280;57132;51.972;4.450;2023-04-24T01:18:47;99881.44;;;8.14;100.00
69836;BME280;57132;51.972;4.450;2023-04-24T01:21:14;99882.66;;;8.10;100.00
69836;BME280;57132;51.972;4.450;2023-04-24T01:23:42;99881.19;;;8.06;100.00
69836;BME280;57132;51.972;4.450;2023-04-24T01:26:11;99884.06;;;8.03;100.00
69836;BME280;57132;51.972;4.450;2023-04-24T01:28:37;99880.91;;;7.98;100.00
69836;BME280;57132;51.972;4.450;2023-04-24T01:31:02;99886.72;;;7.92;100.00
69836;BME280;57132;51.972;4.450;2023-04-24T01:33:28;99890.56;;;7.88;100.00
69836;BME280;57132;51.972;4.450;2023-04-24T01:35:54;99885.47;;;7.85;100.00
69836;BME280;57132;51.972;4.450;2023-04-24T01:38:19;99890.03;;;7.83;100.00
69836;BME280;57132;51.972;4.450;2023-04-24T01:40:44;99881.34;;;7.81;100.00
69836;BME280;57132;51.972;4.450;2023-04-24T01:43:11;99887.59;;;7.80;100.00
69836;BME280;57132;51.972;4.450;2023-04-24T01:45:36;99884.22;;;7.78;100.00
69836;BME280;57132;51.972;4.450;2023-04-24T01:48:02;99881.56;;;7.78;100.00
69836;BME280;57132;51.972;4.450;2023-04-24T01:50:27;99887.00;;;7.76;100.00
69836;BME280;57132;51.972;4.450;2023-04-24T01:52:53;99881.44;;;7.79;100.00
69836;BME280;57132;51.972;4.450;2023-04-24T01:55:18;99880.72;;;7.77;100.00
69836;BME280;57132;51.972;4.450;2023-04-24T01:57:43;99879.13;;;7.75;100.00
69836;BME280;57132;51.972;4.450;2023-04-24T02:00:09;99885.19;;;7.77;100.00
69836;BME280;57132;51.972;4.450;2023-04-24T02:02:37;99886.13;;;7.76;100.00
69836;BME280;57132;51.972;4.450;2023-04-24T02:05:06;99883.47;;;7.76;100.00
69836;BME280;57132;51.972;4.450;2023-04-24T02:07:31;99877.22;;;7.77;100.00
69836;BME280;57132;51.972;4.450;2023-04-24T02:09:57;99881.56;;;7.78;100.00
69836;BME280;57132;51.972;4.450;2023-04-24T02:12:23;99873.59;;;7.78;100.00
69836;BME280;57132;51.972;4.450;2023-04-24T02:14:48;99879.03;;;7.76;100.00
69836;BME280;57132;51.972;4.450;2023-04-24T02:17:13;99877.22;;;7.77;100.00
69836;BME280;57132;51.972;4.450;2023-04-24T02:19:40;99872.63;;;7.79;100.00
69836;BME280;57132;51.972;4.450;2023-04-24T02:22:06;99874.31;;;7.80;100.00
69836;BME280;57132;51.972;4.450;2023-04-24T02:24:31;99880.38;;;7.82;100.00
69836;BME280;57132;51.972;4.450;2023-04-24T02:26:56;99879.53;;;7.81;100.00
69836;BME280;57132;51.972;4.450;2023-04-24T02:29:23;99883.03;;;7.82;100.00
69836;BME280;57132;51.972;4.450;2023-04-24T02:31:48;99884.84;;;7.81;100.00
69836;BME280;57132;51.972;4.450;2023-04-24T02:34:13;99889.09;;;7.84;100.00
69836;BME280;57132;51.972;4.450;2023-04-24T02:36:39;99880.16;;;7.85;100.00
69836;BME280;57132;51.972;4.450;2023-04-24T02:39:04;99889.09;;;7.84;100.00
69836;BME280;57132;51.972;4.450;2023-04-24T02:41:30;99877.50;;;7.85;100.00
69836;BME280;57132;51.972;4.450;2023-04-24T02:43:58;99887.28;;;7.84;100.00
69836;BME280;57132;51.972;4.450;2023-04-24T02:46:24;99885.47;;;7.85;100.00
69836;BME280;57132;51.972;4.450;2023-04-24T02:48:49;99887.09;;;7.75;100.00
69836;BME280;57132;51.972;4.450;2023-04-24T02:51:14;99885.16;;;7.66;100.00
69836;BME280;57132;51.972;4.450;2023-04-24T02:53:40;99889.00;;;7.61;100.00
69836;BME280;57132;51.972;4.450;2023-04-24T02:56:05;99891.16;;;7.56;100.00
69836;BME280;57132;51.972;4.450;2023-04-24T02:58:31;99890.41;;;7.54;100.00
69836;BME280;57132;51.972;4.450;2023-04-24T03:00:56;99893.16;;;7.53;100.00
69836;BME280;57132;51.972;4.450;2023-04-24T03:03:22;99890.59;;;7.51;100.00
69836;BME280;57132;51.972;4.450;2023-04-24T03:05:47;99885.28;;;7.51;100.00
69836;BME280;57132;51.972;4.450;2023-04-24T03:08:12;99892.31;;;7.52;100.00
69836;BME280;57132;51.972;4.450;2023-04-24T03:10:39;99893.16;;;7.53;100.00
69836;BME280;57132;51.972;4.450;2023-04-24T03:13:04;99892.06;;;7.55;100.00
69836;BME280;57132;51.972;4.450;2023-04-24T03:15:30;99890.19;;;7.57;100.00
69836;BME280;57132;51.972;4.450;2023-04-24T03:17:55;99894.53;;;7.58;100.00
69836;BME280;57132;51.972;4.450;2023-04-24T03:20:21;99889.06;;;7.60;100.00
69836;BME280;57132;51.972;4.450;2023-04-24T03:22:46;99889.81;;;7.62;100.00
69836;BME280;57132;51.972;4.450;2023-04-24T03:25:11;99879.34;;;7.60;100.00
69836;BME280;57132;51.972;4.450;2023-04-24T03:27:37;99878.25;;;7.63;100.00
69836;BME280;57132;51.972;4.450;2023-04-24T03:30:03;99878.16;;;7.64;100.00
69836;BME280;57132;51.972;4.450;2023-04-24T03:32:28;99898.91;;;7.71;100.00
69836;BME280;57132;51.972;4.450;2023-04-24T03:34:53;99887.31;;;7.72;100.00
69836;BME280;57132;51.972;4.450;2023-04-24T03:37:19;99885.41;;;7.74;100.00
69836;BME280;57132;51.972;4.450;2023-04-24T03:39:44;99882.75;;;7.74;100.00
69836;BME280;57132;51.972;4.450;2023-04-24T03:42:09;99881.06;;;7.73;100.00
69836;BME280;57132;51.972;4.450;2023-04-24T03:44:35;99885.53;;;7.72;100.00
69836;BME280;57132;51.972;4.450;2023-04-24T03:47:01;99883.81;;;7.71;100.00
69836;BME280;57132;51.972;4.450;2023-04-24T03:49:26;99884.91;;;7.69;100.00
69836;BME280;57132;51.972;4.450;2023-04-24T03:51:52;99892.97;;;7.67;100.00
69836;BME280;57132;51.972;4.450;2023-04-24T03:54:18;99901.16;;;7.64;100.00
69836;BME280;57132;51.972;4.450;2023-04-24T03:56:43;99895.03;;;7.63;100.00
69836;BME280;57132;51.972;4.450;2023-04-24T03:59:09;99900.44;;;7.62;100.00
69836;BME280;57132;51.972;4.450;2023-04-24T04:01:34;99903.94;;;7.62;100.00
69836;BME280;57132;51.972;4.450;2023-04-24T04:04:03;99912.75;;;7.63;100.00
69836;BME280;57132;51.972;4.450;2023-04-24T04:06:28;99913.38;;;7.67;100.00
69836;BME280;57132;51.972;4.450;2023-04-24T04:08:55;99914.84;;;7.71;100.00
69836;BME280;57132;51.972;4.450;2023-04-24T04:11:21;99916.31;;;7.75;100.00
69836;BME280;57132;51.972;4.450;2023-04-24T04:13:46;99920.66;;;7.76;100.00
69836;BME280;57132;51.972;4.450;2023-04-24T04:16:13;99921.41;;;7.78;100.00
69836;BME280;57132;51.972;4.450;2023-04-24T04:18:38;99919.47;;;7.80;100.00
69836;BME280;57132;51.972;4.450;2023-04-24T04:21:03;99930.84;;;7.82;100.00
69836;BME280;57132;51.972;4.450;2023-04-24T04:23:29;99933.78;;;7.90;100.00
69836;BME280;57132;51.972;4.450;2023-04-24T04:25:54;99936.22;;;7.93;100.00
69836;BME280;57132;51.972;4.450;2023-04-24T04:28:20;99945.03;;;7.94;100.00
69836;BME280;57132;51.972;4.450;2023-04-24T04:30:46;99960.22;;;7.92;100.00
69836;BME280;57132;51.972;4.450;2023-04-24T04:33:12;99964.72;;;7.91;100.00
69836;BME280;57132;51.972;4.450;2023-04-24T04:35:38;99961.34;;;7.89;100.00
69836;BME280;57132;51.972;4.450;2023-04-24T04:38:03;99974.00;;;7.85;100.00
69836;BME280;57132;51.972;4.450;2023-04-24T04:40:29;99981.56;;;7.79;100.00
69836;BME280;57132;51.972;4.450;2023-04-24T04:42:55;99985.00;;;7.68;100.00
69836;BME280;57132;51.972;4.450;2023-04-24T04:45:20;99999.34;;;7.66;100.00
69836;BME280;57132;51.972;4.450;2023-04-24T04:47:46;99999.44;;;7.64;100.00
69836;BME280;57132;51.972;4.450;2023-04-24T04:50:12;100004.75;;;7.64;100.00
69836;BME280;57132;51.972;4.450;2023-04-24T04:52:37;100014.44;;;7.65;100.00
69836;BME280;57132;51.972;4.450;2023-04-24T04:55:03;100027.19;;;7.60;100.00
69836;BME280;57132;51.972;4.450;2023-04-24T04:57:29;100024.56;;;7.47;100.00
69836;BME280;57132;51.972;4.450;2023-04-24T04:59:55;100036.69;;;7.38;100.00
69836;BME280;57132;51.972;4.450;2023-04-24T05:02:20;100035.31;;;7.33;100.00
69836;BME280;57132;51.972;4.450;2023-04-24T05:04:45;100053.03;;;7.32;100.00
69836;BME280;57132;51.972;4.450;2023-04-24T05:07:11;100051.34;;;7.31;100.00
69836;BME280;57132;51.972;4.450;2023-04-24T05:09:36;100064.53;;;7.33;100.00
69836;BME280;57132;51.972;4.450;2023-04-24T05:12:02;100067.91;;;7.35;100.00
69836;BME280;57132;51.972;4.450;2023-04-24T05:14:28;100061.75;;;7.34;100.00
69836;BME280;57132;51.972;4.450;2023-04-24T05:16:53;100077.78;;;7.33;100.00
69836;BME280;57132;51.972;4.450;2023-04-24T05:19:18;100091.78;;;7.35;100.00
69836;BME280;57132;51.972;4.450;2023-04-24T05:21:43;100096.59;;;7.30;100.00
69836;BME280;57132;51.972;4.450;2023-04-24T05:24:09;100106.34;;;7.29;100.00
69836;BME280;57132;51.972;4.450;2023-04-24T05:26:34;100113.75;;;7.24;100.00
69836;BME280;57132;51.972;4.450;2023-04-24T05:29:01;100122.81;;;7.22;100.00
69836;BME280;57132;51.972;4.450;2023-04-24T05:31:26;100123.13;;;7.17;100.00
69836;BME280;57132;51.972;4.450;2023-04-24T05:33:51;100133.94;;;7.14;100.00
69836;BME280;57132;51.972;4.450;2023-04-24T05:36:17;100155.16;;;7.14;100.00
69836;BME280;57132;51.972;4.450;2023-04-24T05:38:42;100144.56;;;7.14;100.00
69836;BME280;57132;51.972;4.450;2023-04-24T05:41:08;100158.56;;;7.16;100.00
69836;BME280;57132;51.972;4.450;2023-04-24T05:43:33;100159.41;;;7.17;100.00
69836;BME280;57132;51.972;4.450;2023-04-24T05:45:58;100169.72;;;7.21;100.00
69836;BME280;57132;51.972;4.450;2023-04-24T05:48:24;100167.94;;;7.22;100.00
69836;BME280;57132;51.972;4.450;2023-04-24T05:50:49;100174.94;;;7.23;100.00
69836;BME280;57132;51.972;4.450;2023-04-24T05:53:15;100183.84;;;7.22;100.00
69836;BME280;57132;51.972;4.450;2023-04-24T05:55:41;100181.19;;;7.22;100.00
69836;BME280;57132;51.972;4.450;2023-04-24T05:58:06;100200.63;;;7.22;100.00
69836;BME280;57132;51.972;4.450;2023-04-24T06:00:32;100198.63;;;7.26;100.00
69836;BME280;57132;51.972;4.450;2023-04-24T06:03:00;100212.72;;;7.26;100.00
69836;BME280;57132;51.972;4.450;2023-04-24T06:05:25;100218.03;;;7.26;100.00
69836;BME280;57132;51.972;4.450;2023-04-24T06:07:54;100217.19;;;7.26;100.00
69836;BME280;57132;51.972;4.450;2023-04-24T06:10:20;100238.31;;;7.27;100.00
69836;BME280;57132;51.972;4.450;2023-04-24T06:12:45;100236.50;;;7.28;100.00
69836;BME280;57132;51.972;4.450;2023-04-24T06:15:11;100238.63;;;7.23;100.00
69836;BME280;57132;51.972;4.450;2023-04-24T06:17:36;100250.09;;;7.23;100.00
69836;BME280;57132;51.972;4.450;2023-04-24T06:20:02;100252.75;;;7.23;100.00
69836;BME280;57132;51.972;4.450;2023-04-24T06:22:30;100258.06;;;7.23;100.00
69836;BME280;57132;51.972;4.450;2023-04-24T06:24:55;100263.47;;;7.22;100.00
69836;BME280;57132;51.972;4.450;2023-04-24T06:27:20;100267.09;;;7.21;100.00
69836;BME280;57132;51.972;4.450;2023-04-24T06:29:46;100270.47;;;7.23;100.00
69836;BME280;57132;51.972;4.450;2023-04-24T06:32:17;100284.53;;;7.25;100.00
69836;BME280;57132;51.972;4.450;2023-04-24T06:34:42;100293.34;;;7.25;100.00
69836;BME280;57132;51.972;4.450;2023-04-24T06:37:08;100291.53;;;7.26;100.00
69836;BME280;57132;51.972;4.450;2023-04-24T06:39:33;100300.22;;;7.28;100.00
69836;BME280;57132;51.972;4.450;2023-04-24T06:41:58;100318.72;;;7.29;100.00
69836;BME280;57132;51.972;4.450;2023-04-24T06:44:24;100314.34;;;7.28;100.00
69836;BME280;57132;51.972;4.450;2023-04-24T06:46:50;100322.97;;;7.32;100.00
69836;BME280;57132;51.972;4.450;2023-04-24T06:49:15;100324.47;;;7.36;100.00
69836;BME280;57132;51.972;4.450;2023-04-24T06:51:41;100330.34;;;7.41;100.00
69836;BME280;57132;51.972;4.450;2023-04-24T06:54:06;100343.19;;;7.47;100.00
69836;BME280;57132;51.972;4.450;2023-04-24T06:56:31;100344.91;;;7.48;100.00
69836;BME280;57132;51.972;4.450;2023-04-24T06:58:59;100347.00;;;7.43;100.00
69836;BME280;57132;51.972;4.450;2023-04-24T07:01:24;100350.63;;;7.42;100.00
69836;BME280;57132;51.972;4.450;2023-04-24T07:03:50;100356.13;;;7.39;100.00
69836;BME280;57132;51.972;4.450;2023-04-24T07:06:15;100369.94;;;7.44;100.00
69836;BME280;57132;51.972;4.450;2023-04-24T07:08:41;100368.25;;;7.43;100.00
69836;BME280;57132;51.972;4.450;2023-04-24T07:11:07;100378.78;;;7.45;100.00
69836;BME280;57132;51.972;4.450;2023-04-24T07:13:33;100385.50;;;7.50;100.00
69836;BME280;57132;51.972;4.450;2023-04-24T07:16:00;100395.16;;;7.51;100.00
69836;BME280;57132;51.972;4.450;2023-04-24T07:18:25;100396.88;;;7.52;100.00
69836;BME280;57132;51.972;4.450;2023-04-24T07:20:51;100400.56;;;7.50;100.00
69836;BME280;57132;51.972;4.450;2023-04-24T07:23:17;100411.09;;;7.51;100.00
69836;BME280;57132;51.972;4.450;2023-04-24T07:25:43;100407.59;;;7.51;100.00
69836;BME280;57132;51.972;4.450;2023-04-24T07:28:09;100421.53;;;7.54;100.00
69836;BME280;57132;51.972;4.450;2023-04-24T07:30:34;100418.75;;;7.56;100.00
69836;BME280;57132;51.972;4.450;2023-04-24T07:32:59;100421.22;;;7.59;100.00
69836;BME280;57132;51.972;4.450;2023-04-24T07:35:26;100433.47;;;7.61;100.00
69836;BME280;57132;51.972;4.450;2023-04-24T07:37:55;100431.75;;;7.60;100.00
69836;BME280;57132;51.972;4.450;2023-04-24T07:40:21;100442.94;;;7.66;100.00
69836;BME280;57132;51.972;4.450;2023-04-24T07:42:46;100451.75;;;7.66;100.00
69836;BME280;57132;51.972;4.450;2023-04-24T07:45:14;100448.97;;;7.68;100.00
69836;BME280;57132;51.972;4.450;2023-04-24T07:47:40;100458.88;;;7.66;100.00
69836;BME280;57132;51.972;4.450;2023-04-24T07:50:09;100468.72;;;7.63;100.00
69836;BME280;57132;51.972;4.450;2023-04-24T07:52:34;100458.75;;;7.67;100.00
69836;BME280;57132;51.972;4.450;2023-04-24T07:55:00;100465.78;;;7.68;100.00
69836;BME280;57132;51.972;4.450;2023-04-24T07:57:27;100469.50;;;7.66;100.00
69836;BME280;57132;51.972;4.450;2023-04-24T07:59:52;100469.88;;;7.59;100.00
69836;BME280;57132;51.972;4.450;2023-04-24T08:02:17;100486.88;;;7.57;100.00
69836;BME280;57132;51.972;4.450;2023-04-24T08:04:43;100485.72;;;7.61;100.00
69836;BME280;57132;51.972;4.450;2023-04-24T08:07:08;100486.47;;;7.63;100.00
69836;BME280;57132;51.972;4.450;2023-04-24T08:09:33;100505.47;;;7.57;100.00
69836;BME280;57132;51.972;4.450;2023-04-24T08:11:59;100497.88;;;7.51;100.00
69836;BME280;57132;51.972;4.450;2023-04-24T08:14:24;100503.50;;;7.46;100.00
69836;BME280;57132;51.972;4.450;2023-04-24T08:16:50;100490.03;;;7.49;100.00
69836;BME280;57132;51.972;4.450;2023-04-24T08:19:15;100500.03;;;7.58;100.00
69836;BME280;57132;51.972;4.450;2023-04-24T08:21:41;100510.19;;;7.66;100.00
69836;BME280;57132;51.972;4.450;2023-04-24T08:24:06;100514.91;;;7.75;100.00
69836;BME280;57132;51.972;4.450;2023-04-24T08:26:33;100519.72;;;7.83;100.00
69836;BME280;57132;51.972;4.450;2023-04-24T08:28:58;100527.66;;;7.97;100.00
69836;BME280;57132;51.972;4.450;2023-04-24T08:31:23;100531.06;;;7.99;100.00
69836;BME280;57132;51.972;4.450;2023-04-24T08:33:50;100538.47;;;8.08;100.00
69836;BME280;57132;51.972;4.450;2023-04-24T08:36:15;100546.50;;;8.07;100.00
69836;BME280;57132;51.972;4.450;2023-04-24T08:38:42;100545.97;;;8.02;100.00
69836;BME280;57132;51.972;4.450;2023-04-24T08:41:08;100556.19;;;7.81;100.00
69836;BME280;57132;51.972;4.450;2023-04-24T08:43:35;100556.75;;;7.72;100.00
69836;BME280;57132;51.972;4.450;2023-04-24T08:46:01;100568.03;;;7.75;100.00
69836;BME280;57132;51.972;4.450;2023-04-24T08:48:27;100566.88;;;7.79;100.00
69836;BME280;57132;51.972;4.450;2023-04-24T08:50:53;100569.16;;;7.85;100.00
69836;BME280;57132;51.972;4.450;2023-04-24T08:53:19;100577.03;;;7.87;100.00
69836;BME280;57132;51.972;4.450;2023-04-24T08:55:47;100572.69;;;7.86;100.00
69836;BME280;57132;51.972;4.450;2023-04-24T08:58:14;100576.84;;;7.90;100.00
69836;BME280;57132;51.972;4.450;2023-04-24T09:00:40;100576.84;;;7.90;100.00
69836;BME280;57132;51.972;4.450;2023-04-24T09:03:13;100578.09;;;7.84;100.00
69836;BME280;57132;51.972;4.450;2023-04-24T09:05:39;100587.69;;;7.73;100.00
69836;BME280;57132;51.972;4.450;2023-04-24T09:08:06;100582.00;;;7.50;100.00
69836;BME280;57132;51.972;4.450;2023-04-24T09:10:34;100592.06;;;7.45;100.00
69836;BME280;57132;51.972;4.450;2023-04-24T09:13:00;100583.16;;;7.46;100.00
69836;BME280;57132;51.972;4.450;2023-04-24T09:15:27;100596.53;;;7.59;100.00
69836;BME280;57132;51.972;4.450;2023-04-24T09:17:53;100593.19;;;7.84;100.00
69836;BME280;57132;51.972;4.450;2023-04-24T09:20:18;100589.22;;;8.18;100.00
69836;BME280;57132;51.972;4.450;2023-04-24T09:22:44;100586.91;;;8.41;100.00
69836;BME280;57132;51.972;4.450;2023-04-24T09:25:10;100593.38;;;8.64;100.00
69836;BME280;57132;51.972;4.450;2023-04-24T09:27:42;100590.34;;;8.95;100.00
69836;BME280;57132;51.972;4.450;2023-04-24T09:30:09;100591.91;;;8.98;100.00
69836;BME280;57132;51.972;4.450;2023-04-24T09:32:34;100604.09;;;9.15;100.00
69836;BME280;57132;51.972;4.450;2023-04-24T09:35:14;100607.09;;;9.35;100.00
69836;BME280;57132;51.972;4.450;2023-04-24T09:37:45;100609.63;;;9.63;100.00
69836;BME280;57132;51.972;4.450;2023-04-24T09:40:21;100609.91;;;9.83;100.00
69836;BME280;57132;51.972;4.450;2023-04-24T09:42:56;100613.66;;;9.81;100.00
69836;BME280;57132;51.972;4.450;2023-04-24T09:45:28;100626.47;;;9.76;100.00
69836;BME280;57132;51.972;4.450;2023-04-24T09:47:53;100631.38;;;9.82;100.00
69836;BME280;57132;51.972;4.450;2023-04-24T09:50:20;100636.06;;;9.40;100.00
69836;BME280;57132;51.972;4.450;2023-04-24T09:52:55;100628.47;;;9.21;100.00
69836;BME280;57132;51.972;4.450;2023-04-24T09:55:21;100642.78;;;9.33;100.00
69836;BME280;57132;51.972;4.450;2023-04-24T09:57:59;100643.41;;;9.36;100.00
69836;BME280;57132;51.972;4.450;2023-04-24T10:00:28;100644.38;;;9.35;100.00
69836;BME280;57132;51.972;4.450;2023-04-24T10:03:00;100632.28;;;8.92;100.00
69836;BME280;57132;51.972;4.450;2023-04-24T10:05:31;100658.41;;;8.72;100.00
69836;BME280;57132;51.972;4.450;2023-04-24T10:08:07;100665.09;;;8.65;100.00
69836;BME280;57132;51.972;4.450;2023-04-24T10:10:41;100670.44;;;8.78;100.00
69836;BME280;57132;51.972;4.450;2023-04-24T10:13:07;100669.38;;;9.07;100.00
69836;BME280;57132;51.972;4.450;2023-04-24T10:15:34;100679.41;;;9.29;100.00
69836;BME280;57132;51.972;4.450;2023-04-24T10:18:00;100666.44;;;9.50;100.00
69836;BME280;57132;51.972;4.450;2023-04-24T10:20:28;100669.66;;;9.43;100.00
69836;BME280;57132;51.972;4.450;2023-04-24T10:22:55;100676.53;;;9.32;100.00
69836;BME280;57132;51.972;4.450;2023-04-24T10:25:23;100671.59;;;9.14;100.00
69836;BME280;57132;51.972;4.450;2023-04-24T10:27:50;100670.47;;;8.91;100.00
69836;BME280;57132;51.972;4.450;2023-04-24T10:30:17;100668.06;;;8.60;100.00
69836;BME280;57132;51.972;4.450;2023-04-24T10:32:43;100675.34;;;8.71;100.00
69836;BME280;57132;51.972;4.450;2023-04-24T10:35:09;100683.22;;;8.73;100.00
69836;BME280;57132;51.972;4.450;2023-04-24T10:37:49;100688.72;;;8.70;100.00
69836;BME280;57132;51.972;4.450;2023-04-24T10:40:25;100690.72;;;8.66;100.00
69836;BME280;57132;51.972;4.450;2023-04-24T10:42:52;100694.09;;;8.55;100.00
69836;BME280;57132;51.972;4.450;2023-04-24T10:45:21;100705.22;;;8.75;100.00
69836;BME280;57132;51.972;4.450;2023-04-24T10:48:01;100707.94;;;9.15;100.00
69836;BME280;57132;51.972;4.450;2023-04-24T10:50:28;100709.81;;;10.03;100.00
69836;BME280;57132;51.972;4.450;2023-04-24T10:53:06;100702.13;;;10.12;100.00
69836;BME280;57132;51.972;4.450;2023-04-24T10:55:50;100697.72;;;10.36;100.00
69836;BME280;57132;51.972;4.450;2023-04-24T10:58:16;100708.03;;;9.91;100.00
69836;BME280;57132;51.972;4.450;2023-04-24T11:00:55;100725.81;;;9.65;100.00
69836;BME280;57132;51.972;4.450;2023-04-24T11:03:28;100722.84;;;9.17;100.00
69836;BME280;57132;51.972;4.450;2023-04-24T11:06:02;100711.22;;;9.18;100.00
69836;BME280;57132;51.972;4.450;2023-04-24T11:08:45;100712.88;;;9.46;100.00
69836;BME280;57132;51.972;4.450;2023-04-24T11:11:12;100715.38;;;9.75;100.00
69836;BME280;57132;51.972;4.450;2023-04-24T11:19:05;100734.66;;;11.73;100.00
69836;BME280;57132;51.972;4.450;2023-04-24T11:21:31;100733.66;;;11.74;100.00
69836;BME280;57132;51.972;4.450;2023-04-24T11:23:58;100730.53;;;11.80;100.00
69836;BME280;57132;51.972;4.450;2023-04-24T11:26:23;100738.31;;;11.84;100.00
69836;BME280;57132;51.972;4.450;2023-04-24T11:29:06;100752.53;;;11.73;100.00
69836;BME280;57132;51.972;4.450;2023-04-24T11:31:44;100756.09;;;11.85;100.00
69836;BME280;57132;51.972;4.450;2023-04-24T11:34:17;100753.06;;;11.54;100.00
69836;BME280;57132;51.972;4.450;2023-04-24T11:36:46;100760.19;;;11.42;100.00
69836;BME280;57132;51.972;4.450;2023-04-24T11:39:13;100767.44;;;11.29;100.00
69836;BME280;57132;51.972;4.450;2023-04-24T11:41:39;100770.72;;;11.08;100.00
69836;BME280;57132;51.972;4.450;2023-04-24T11:44:06;100765.56;;;10.94;100.00
69836;BME280;57132;51.972;4.450;2023-04-24T11:46:32;100773.09;;;11.24;100.00
69836;BME280;57132;51.972;4.450;2023-04-24T11:48:58;100775.78;;;11.48;100.00
69836;BME280;57132;51.972;4.450;2023-04-24T11:51:25;100776.25;;;11.18;100.00
69836;BME280;57132;51.972;4.450;2023-04-24T11:53:52;100778.34;;;11.26;100.00
69836;BME280;57132;51.972;4.450;2023-04-24T11:56:18;100782.38;;;11.07;100.00
69836;BME280;57132;51.972;4.450;2023-04-24T11:58:47;100780.75;;;11.18;100.00
69836;BME280;57132;51.972;4.450;2023-04-24T12:01:13;100780.41;;;12.83;100.00
69836;BME280;57132;51.972;4.450;2023-04-24T12:03:38;100784.13;;;13.02;99.49
69836;BME280;57132;51.972;4.450;2023-04-24T12:06:08;100791.41;;;12.46;100.00
69836;BME280;57132;51.972;4.450;2023-04-24T12:08:33;100789.81;;;11.39;100.00
69836;BME280;57132;51.972;4.450;2023-04-24T12:11:04;100794.88;;;11.31;100.00
69836;BME280;57132;51.972;4.450;2023-04-24T12:13:32;100799.13;;;10.86;100.00
69836;BME280;57132;51.972;4.450;2023-04-24T12:15:58;100804.91;;;10.30;100.00
69836;BME280;57132;51.972;4.450;2023-04-24T12:18:24;100809.97;;;9.95;100.00
69836;BME280;57132;51.972;4.450;2023-04-24T12:20:49;100816.59;;;10.02;100.00
69836;BME280;57132;51.972;4.450;2023-04-24T12:23:15;100821.69;;;9.92;100.00
69836;BME280;57132;51.972;4.450;2023-04-24T12:25:40;100822.06;;;9.60;100.00
69836;BME280;57132;51.972;4.450;2023-04-24T12:30:39;100821.84;;;10.54;100.00
69836;BME280;57132;51.972;4.450;2023-04-24T12:33:04;100834.53;;;10.51;100.00
69836;BME280;57132;51.972;4.450;2023-04-24T12:35:32;100833.06;;;10.34;100.00
69836;BME280;57132;51.972;4.450;2023-04-24T12:38:12;100828.09;;;10.79;100.00
69836;BME280;57132;51.972;4.450;2023-04-24T12:40:39;100825.53;;;10.77;100.00
69836;BME280;57132;51.972;4.450;2023-04-24T12:43:17;100832.63;;;10.40;100.00
69836;BME280;57132;51.972;4.450;2023-04-24T12:45:42;100838.34;;;10.08;100.00
69836;BME280;57132;51.972;4.450;2023-04-24T12:48:09;100839.03;;;10.25;100.00
69836;BME280;57132;51.972;4.450;2023-04-24T12:50:34;100843.84;;;10.45;100.00
69836;BME280;57132;51.972;4.450;2023-04-24T12:52:59;100833.72;;;10.38;100.00
69836;BME280;57132;51.972;4.450;2023-04-24T12:55:25;100829.34;;;10.49;100.00
69836;BME280;57132;51.972;4.450;2023-04-24T12:57:50;100835.81;;;10.32;100.00